sensor_id;sensor_type;location;lat;lon;timestamp;temperature;humidity
9323;DHT22;4700;48.822;9.270;2022-12-07T00:01:15;4.40;1.00
9323;DHT22;4700;48.822;9.270;2022-12-07T00:04:03;4.40;1.00
9323;DHT22;4700;48.822;9.270;2022-12-07T00:06:51;4.50;1.00
9323;DHT22;4700;48.822;9.270;2022-12-07T00:09:40;4.40;1.00
9323;DHT22;4700;48.822;9.270;2022-12-07T00:12:28;4.40;1.00
9323;DHT22;4700;48.822;9.270;2022-12-07T00:15:14;4.40;1.00
9323;DHT22;4700;48.822;9.270;2022-12-07T00:18:04;4.40;1.00
9323;DHT22;4700;48.822;9.270;2022-12-07T00:20:50;4.40;1.00
9323;DHT22;4700;48.822;9.270;2022-12-07T00:23:37;4.40;1.00
9323;DHT22;4700;48.822;9.270;2022-12-07T00:26:26;4.30;1.00
9323;DHT22;4700;48.822;9.270;2022-12-07T00:29:16;4.40;1.00
9323;DHT22;4700;48.822;9.270;2022-12-07T00:32:03;4.40;1.00
9323;DHT22;4700;48.822;9.270;2022-12-07T00:34:49;4.40;1.00
9323;DHT22;4700;48.822;9.270;2022-12-07T00:37:36;4.70;1.00
9323;DHT22;4700;48.822;9.270;2022-12-07T00:40:23;4.40;1.00
9323;DHT22;4700;48.822;9.270;2022-12-07T00:43:14;4.30;1.00
9323;DHT22;4700;48.822;9.270;2022-12-07T00:46:01;4.30;1.00
9323;DHT22;4700;48.822;9.270;2022-12-07T00:48:48;4.30;1.00
9323;DHT22;4700;48.822;9.270;2022-12-07T00:51:34;4.30;1.00
9323;DHT22;4700;48.822;9.270;2022-12-07T00:54:21;4.30;1.00
9323;DHT22;4700;48.822;9.270;2022-12-07T00:57:06;4.30;1.00
9323;DHT22;4700;48.822;9.270;2022-12-07T00:59:55;4.30;1.00
9323;DHT22;4700;48.822;9.270;2022-12-07T01:02:41;4.20;1.00
9323;DHT22;4700;48.822;9.270;2022-12-07T01:05:27;4.20;1.00
9323;DHT22;4700;48.822;9.270;2022-12-07T01:07:56;4.20;1.00
9323;DHT22;4700;48.822;9.270;2022-12-07T01:10:42;4.20;1.00
9323;DHT22;4700;48.822;9.270;2022-12-07T01:13:28;4.20;1.00
9323;DHT22;4700;48.822;9.270;2022-12-07T01:16:17;4.20;1.00
9323;DHT22;4700;48.822;9.270;2022-12-07T01:19:06;4.10;1.00
9323;DHT22;4700;48.822;9.270;2022-12-07T01:21:54;4.10;1.00
9323;DHT22;4700;48.822;9.270;2022-12-07T01:24:40;4.10;1.00
9323;DHT22;4700;48.822;9.270;2022-12-07T01:27:27;4.10;1.00
9323;DHT22;4700;48.822;9.270;2022-12-07T01:30:13;4.10;1.00
9323;DHT22;4700;48.822;9.270;2022-12-07T01:33:00;4.00;1.00
9323;DHT22;4700;48.822;9.270;2022-12-07T01:35:47;4.00;1.00
9323;DHT22;4700;48.822;9.270;2022-12-07T01:38:34;4.00;1.00
9323;DHT22;4700;48.822;9.270;2022-12-07T01:41:20;4.00;1.00
9323;DHT22;4700;48.822;9.270;2022-12-07T01:44:10;4.00;1.00
9323;DHT22;4700;48.822;9.270;2022-12-07T01:46:58;3.90;1.00
9323;DHT22;4700;48.822;9.270;2022-12-07T01:49:48;3.90;1.00
9323;DHT22;4700;48.822;9.270;2022-12-07T01:52:37;3.90;1.00
9323;DHT22;4700;48.822;9.270;2022-12-07T01:55:24;3.90;1.00
9323;DHT22;4700;48.822;9.270;2022-12-07T01:58:12;4.00;1.00
9323;DHT22;4700;48.822;9.270;2022-12-07T02:01:00;3.90;1.00
9323;DHT22;4700;48.822;9.270;2022-12-07T02:03:47;3.90;1.00
9323;DHT22;4700;48.822;9.270;2022-12-07T02:06:39;3.90;1.00
9323;DHT22;4700;48.822;9.270;2022-12-07T02:09:27;3.90;1.00
9323;DHT22;4700;48.822;9.270;2022-12-07T02:12:14;3.90;1.00
9323;DHT22;4700;48.822;9.270;2022-12-07T02:15:00;4.00;1.00
9323;DHT22;4700;48.822;9.270;2022-12-07T02:17:51;3.90;1.00
9323;DHT22;4700;48.822;9.270;2022-12-07T02:20:44;3.90;1.00
9323;DHT22;4700;48.822;9.270;2022-12-07T02:23:52;3.80;1.00
9323;DHT22;4700;48.822;9.270;2022-12-07T02:27:02;3.80;1.00
9323;DHT22;4700;48.822;9.270;2022-12-07T02:30:00;3.90;1.00
9323;DHT22;4700;48.822;9.270;2022-12-07T02:32:53;3.80;1.00
9323;DHT22;4700;48.822;9.270;2022-12-07T02:35:43;3.80;1.00
9323;DHT22;4700;48.822;9.270;2022-12-07T02:38:36;3.80;1.00
9323;DHT22;4700;48.822;9.270;2022-12-07T02:41:31;4.50;1.00
9323;DHT22;4700;48.822;9.270;2022-12-07T02:44:22;3.80;1.00
9323;DHT22;4700;48.822;9.270;2022-12-07T02:47:15;3.80;1.00
9323;DHT22;4700;48.822;9.270;2022-12-07T02:50:04;3.80;1.00
9323;DHT22;4700;48.822;9.270;2022-12-07T02:52:51;3.80;1.00
9323;DHT22;4700;48.822;9.270;2022-12-07T02:55:41;3.80;1.00
9323;DHT22;4700;48.822;9.270;2022-12-07T02:58:38;3.80;1.00
9323;DHT22;4700;48.822;9.270;2022-12-07T03:01:35;3.80;1.00
9323;DHT22;4700;48.822;9.270;2022-12-07T03:04:41;3.80;1.00
9323;DHT22;4700;48.822;9.270;2022-12-07T03:07:37;3.80;1.00
9323;DHT22;4700;48.822;9.270;2022-12-07T03:10:29;3.80;1.00
9323;DHT22;4700;48.822;9.270;2022-12-07T03:13:23;3.80;1.00
9323;DHT22;4700;48.822;9.270;2022-12-07T03:16:15;3.80;1.00
9323;DHT22;4700;48.822;9.270;2022-12-07T03:19:11;3.80;1.00
9323;DHT22;4700;48.822;9.270;2022-12-07T03:22:12;3.80;1.00
9323;DHT22;4700;48.822;9.270;2022-12-07T03:25:04;3.80;1.00
9323;DHT22;4700;48.822;9.270;2022-12-07T03:27:58;3.80;1.00
9323;DHT22;4700;48.822;9.270;2022-12-07T03:30:48;3.80;1.00
9323;DHT22;4700;48.822;9.270;2022-12-07T03:33:40;3.80;1.00
9323;DHT22;4700;48.822;9.270;2022-12-07T03:36:31;3.80;1.00
9323;DHT22;4700;48.822;9.270;2022-12-07T03:39:29;3.70;1.00
9323;DHT22;4700;48.822;9.270;2022-12-07T03:42:17;3.70;1.00
9323;DHT22;4700;48.822;9.270;2022-12-07T03:45:04;3.70;1.00
9323;DHT22;4700;48.822;9.270;2022-12-07T03:47:58;3.70;1.00
9323;DHT22;4700;48.822;9.270;2022-12-07T03:50:52;3.70;1.00
9323;DHT22;4700;48.822;9.270;2022-12-07T03:53:44;3.70;1.00
9323;DHT22;4700;48.822;9.270;2022-12-07T03:56:35;3.70;1.00
9323;DHT22;4700;48.822;9.270;2022-12-07T03:59:23;3.60;1.00
9323;DHT22;4700;48.822;9.270;2022-12-07T04:02:11;3.60;1.00
9323;DHT22;4700;48.822;9.270;2022-12-07T04:04:58;3.50;1.00
9323;DHT22;4700;48.822;9.270;2022-12-07T05:07:34;3.20;1.00
9323;DHT22;4700;48.822;9.270;2022-12-07T05:10:28;3.30;1.00
9323;DHT22;4700;48.822;9.270;2022-12-07T05:13:19;3.30;1.00
9323;DHT22;4700;48.822;9.270;2022-12-07T05:16:10;3.20;1.00
9323;DHT22;4700;48.822;9.270;2022-12-07T06:21:28;2.90;1.00
9323;DHT22;4700;48.822;9.270;2022-12-07T06:50:22;3.30;1.00
9323;DHT22;4700;48.822;9.270;2022-12-07T07:00:49;3.30;1.00
9323;DHT22;4700;48.822;9.270;2022-12-07T07:03:35;3.30;1.00
9323;DHT22;4700;48.822;9.270;2022-12-07T07:14:02;3.40;1.00
9323;DHT22;4700;48.822;9.270;2022-12-07T07:16:48;3.40;1.00
9323;DHT22;4700;48.822;9.270;2022-12-07T07:19:35;3.40;1.00
9323;DHT22;4700;48.822;9.270;2022-12-07T07:22:23;3.50;1.00
9323;DHT22;4700;48.822;9.270;2022-12-07T07:25:10;3.50;1.00
9323;DHT22;4700;48.822;9.270;2022-12-07T07:27:57;3.60;1.00
9323;DHT22;4700;48.822;9.270;2022-12-07T07:30:49;3.70;1.00
9323;DHT22;4700;48.822;9.270;2022-12-07T07:33:36;3.70;1.00
9323;DHT22;4700;48.822;9.270;2022-12-07T07:36:23;3.70;1.00
9323;DHT22;4700;48.822;9.270;2022-12-07T07:39:10;3.80;1.00
9323;DHT22;4700;48.822;9.270;2022-12-07T07:41:57;3.90;1.00
9323;DHT22;4700;48.822;9.270;2022-12-07T07:44:44;3.90;1.00
9323;DHT22;4700;48.822;9.270;2022-12-07T07:47:33;4.00;1.00
9323;DHT22;4700;48.822;9.270;2022-12-07T07:50:21;4.10;1.00
9323;DHT22;4700;48.822;9.270;2022-12-07T07:53:08;4.10;1.00
9323;DHT22;4700;48.822;9.270;2022-12-07T07:55:55;4.20;1.00
9323;DHT22;4700;48.822;9.270;2022-12-07T07:58:41;4.20;1.00
9323;DHT22;4700;48.822;9.270;2022-12-07T08:01:29;4.30;1.00
9323;DHT22;4700;48.822;9.270;2022-12-07T08:04:17;4.30;1.00
9323;DHT22;4700;48.822;9.270;2022-12-07T08:07:03;4.30;1.00
9323;DHT22;4700;48.822;9.270;2022-12-07T08:09:49;4.30;1.00
9323;DHT22;4700;48.822;9.270;2022-12-07T08:12:37;4.40;1.00
9323;DHT22;4700;48.822;9.270;2022-12-07T08:15:48;4.40;1.00
9323;DHT22;4700;48.822;9.270;2022-12-07T08:18:29;4.50;1.00
9323;DHT22;4700;48.822;9.270;2022-12-07T08:21:17;4.60;1.00
9323;DHT22;4700;48.822;9.270;2022-12-07T08:24:03;4.60;1.00
9323;DHT22;4700;48.822;9.270;2022-12-07T08:26:50;4.70;1.00
9323;DHT22;4700;48.822;9.270;2022-12-07T08:29:36;4.80;1.00
9323;DHT22;4700;48.822;9.270;2022-12-07T08:32:22;4.90;1.00
9323;DHT22;4700;48.822;9.270;2022-12-07T08:35:08;5.00;1.00
9323;DHT22;4700;48.822;9.270;2022-12-07T08:38:02;5.10;1.00
9323;DHT22;4700;48.822;9.270;2022-12-07T08:40:54;5.20;1.00
9323;DHT22;4700;48.822;9.270;2022-12-07T08:43:40;5.30;1.00
9323;DHT22;4700;48.822;9.270;2022-12-07T08:46:31;5.40;1.00
9323;DHT22;4700;48.822;9.270;2022-12-07T08:49:20;5.40;1.00
9323;DHT22;4700;48.822;9.270;2022-12-07T08:52:08;5.50;1.00
9323;DHT22;4700;48.822;9.270;2022-12-07T08:54:56;5.50;1.00
9323;DHT22;4700;48.822;9.270;2022-12-07T08:57:44;5.50;1.00
9323;DHT22;4700;48.822;9.270;2022-12-07T09:00:31;5.50;1.00
9323;DHT22;4700;48.822;9.270;2022-12-07T09:03:17;5.50;1.00
9323;DHT22;4700;48.822;9.270;2022-12-07T09:06:03;5.60;1.00
9323;DHT22;4700;48.822;9.270;2022-12-07T09:08:51;5.70;1.00
9323;DHT22;4700;48.822;9.270;2022-12-07T09:11:40;5.80;1.00
9323;DHT22;4700;48.822;9.270;2022-12-07T09:14:26;5.90;1.00
9323;DHT22;4700;48.822;9.270;2022-12-07T09:17:14;6.00;1.00
9323;DHT22;4700;48.822;9.270;2022-12-07T09:20:00;6.10;1.00
9323;DHT22;4700;48.822;9.270;2022-12-07T09:22:46;6.20;1.00
9323;DHT22;4700;48.822;9.270;2022-12-07T09:25:34;5.90;1.00
9323;DHT22;4700;48.822;9.270;2022-12-07T09:28:21;6.30;1.00
9323;DHT22;4700;48.822;9.270;2022-12-07T09:31:07;6.40;1.00
9323;DHT22;4700;48.822;9.270;2022-12-07T09:33:54;6.40;1.00
9323;DHT22;4700;48.822;9.270;2022-12-07T09:36:40;6.60;1.00
9323;DHT22;4700;48.822;9.270;2022-12-07T09:39:27;6.70;1.00
9323;DHT22;4700;48.822;9.270;2022-12-07T09:42:24;6.80;1.00
9323;DHT22;4700;48.822;9.270;2022-12-07T09:45:15;6.80;1.00
9323;DHT22;4700;48.822;9.270;2022-12-07T09:48:02;6.90;1.00
9323;DHT22;4700;48.822;9.270;2022-12-07T09:50:51;7.00;1.00
9323;DHT22;4700;48.822;9.270;2022-12-07T09:53:38;7.10;1.00
9323;DHT22;4700;48.822;9.270;2022-12-07T09:56:25;7.20;1.00
9323;DHT22;4700;48.822;9.270;2022-12-07T09:59:17;7.10;1.00
9323;DHT22;4700;48.822;9.270;2022-12-07T10:02:24;7.10;1.00
9323;DHT22;4700;48.822;9.270;2022-12-07T10:05:14;7.00;1.00
9323;DHT22;4700;48.822;9.270;2022-12-07T10:08:01;6.90;1.00
9323;DHT22;4700;48.822;9.270;2022-12-07T10:10:51;6.80;1.00
9323;DHT22;4700;48.822;9.270;2022-12-07T10:13:38;6.90;1.00
9323;DHT22;4700;48.822;9.270;2022-12-07T10:18:55;6.90;1.00
9323;DHT22;4700;48.822;9.270;2022-12-07T10:22:03;6.80;1.00
9323;DHT22;4700;48.822;9.270;2022-12-07T10:24:52;6.80;1.00
9323;DHT22;4700;48.822;9.270;2022-12-07T10:27:42;6.80;1.00
9323;DHT22;4700;48.822;9.270;2022-12-07T10:30:30;6.80;1.00
9323;DHT22;4700;48.822;9.270;2022-12-07T10:33:31;6.60;1.00
9323;DHT22;4700;48.822;9.270;2022-12-07T10:36:23;6.70;1.00
9323;DHT22;4700;48.822;9.270;2022-12-07T10:39:14;6.60;1.00
9323;DHT22;4700;48.822;9.270;2022-12-07T10:42:02;6.60;1.00
9323;DHT22;4700;48.822;9.270;2022-12-07T10:45:07;6.60;1.00
9323;DHT22;4700;48.822;9.270;2022-12-07T10:48:02;6.50;1.00
9323;DHT22;4700;48.822;9.270;2022-12-07T10:50:59;6.50;1.00
9323;DHT22;4700;48.822;9.270;2022-12-07T10:53:54;6.50;1.00
9323;DHT22;4700;48.822;9.270;2022-12-07T10:56:58;6.50;1.00
9323;DHT22;4700;48.822;9.270;2022-12-07T11:00:09;6.50;1.00
9323;DHT22;4700;48.822;9.270;2022-12-07T11:06:29;6.60;1.00
9323;DHT22;4700;48.822;9.270;2022-12-07T11:09:43;6.60;1.00
9323;DHT22;4700;48.822;9.270;2022-12-07T11:12:44;6.70;1.00
9323;DHT22;4700;48.822;9.270;2022-12-07T11:15:43;6.70;1.00
9323;DHT22;4700;48.822;9.270;2022-12-07T11:18:41;6.70;1.00
9323;DHT22;4700;48.822;9.270;2022-12-07T11:21:36;6.50;1.00
9323;DHT22;4700;48.822;9.270;2022-12-07T11:24:30;6.40;1.00
9323;DHT22;4700;48.822;9.270;2022-12-07T11:27:29;6.30;1.00
9323;DHT22;4700;48.822;9.270;2022-12-07T11:30:19;6.30;1.00
9323;DHT22;4700;48.822;9.270;2022-12-07T11:33:17;6.30;1.00
9323;DHT22;4700;48.822;9.270;2022-12-07T11:36:24;6.40;1.00
9323;DHT22;4700;48.822;9.270;2022-12-07T11:39:23;6.40;1.00
9323;DHT22;4700;48.822;9.270;2022-12-07T11:42:19;6.40;1.00
9323;DHT22;4700;48.822;9.270;2022-12-07T11:45:14;6.30;1.00
9323;DHT22;4700;48.822;9.270;2022-12-07T11:48:03;6.20;1.00
9323;DHT22;4700;48.822;9.270;2022-12-07T11:50:54;6.00;1.00
9323;DHT22;4700;48.822;9.270;2022-12-07T11:53:46;5.90;1.00
9323;DHT22;4700;48.822;9.270;2022-12-07T11:56:39;5.70;1.00
9323;DHT22;4700;48.822;9.270;2022-12-07T11:59:31;5.60;1.00
9323;DHT22;4700;48.822;9.270;2022-12-07T12:02:26;5.50;1.00
9323;DHT22;4700;48.822;9.270;2022-12-07T12:05:18;5.40;1.00
9323;DHT22;4700;48.822;9.270;2022-12-07T12:08:13;5.30;1.00
9323;DHT22;4700;48.822;9.270;2022-12-07T12:11:08;5.30;1.00
9323;DHT22;4700;48.822;9.270;2022-12-07T12:14:22;5.40;1.00
9323;DHT22;4700;48.822;9.270;2022-12-07T12:20:28;5.20;1.00
9323;DHT22;4700;48.822;9.270;2022-12-07T12:23:18;5.20;1.00
9323;DHT22;4700;48.822;9.270;2022-12-07T12:26:07;5.20;1.00
9323;DHT22;4700;48.822;9.270;2022-12-07T12:28:56;5.30;1.00
9323;DHT22;4700;48.822;9.270;2022-12-07T12:31:48;5.30;1.00
9323;DHT22;4700;48.822;9.270;2022-12-07T12:35:27;5.30;1.00
9323;DHT22;4700;48.822;9.270;2022-12-07T12:38:31;5.30;1.00
9323;DHT22;4700;48.822;9.270;2022-12-07T12:41:57;5.40;1.00
9323;DHT22;4700;48.822;9.270;2022-12-07T12:45:05;5.50;1.00
9323;DHT22;4700;48.822;9.270;2022-12-07T12:47:58;5.70;1.00
9323;DHT22;4700;48.822;9.270;2022-12-07T12:50:46;5.80;1.00
9323;DHT22;4700;48.822;9.270;2022-12-07T12:53:32;5.80;1.00
9323;DHT22;4700;48.822;9.270;2022-12-07T12:56:29;5.80;1.00
9323;DHT22;4700;48.822;9.270;2022-12-07T12:59:28;5.80;1.00
9323;DHT22;4700;48.822;9.270;2022-12-07T13:02:21;5.90;1.00
9323;DHT22;4700;48.822;9.270;2022-12-07T13:05:18;5.90;1.00
9323;DHT22;4700;48.822;9.270;2022-12-07T13:08:16;6.00;1.00
9323;DHT22;4700;48.822;9.270;2022-12-07T13:11:18;6.00;1.00
9323;DHT22;4700;48.822;9.270;2022-12-07T13:14:39;6.10;1.00
9323;DHT22;4700;48.822;9.270;2022-12-07T13:17:58;6.10;1.00
9323;DHT22;4700;48.822;9.270;2022-12-07T13:20:49;6.10;1.00
9323;DHT22;4700;48.822;9.270;2022-12-07T13:23:39;6.10;1.00
9323;DHT22;4700;48.822;9.270;2022-12-07T13:26:41;6.10;1.00
9323;DHT22;4700;48.822;9.270;2022-12-07T13:29:36;6.10;1.00
9323;DHT22;4700;48.822;9.270;2022-12-07T13:32:24;6.00;1.00
9323;DHT22;4700;48.822;9.270;2022-12-07T13:35:31;6.00;1.00
9323;DHT22;4700;48.822;9.270;2022-12-07T13:38:28;6.00;1.00
9323;DHT22;4700;48.822;9.270;2022-12-07T13:41:17;5.90;1.00
9323;DHT22;4700;48.822;9.270;2022-12-07T13:44:09;5.80;1.00
9323;DHT22;4700;48.822;9.270;2022-12-07T13:47:01;5.80;1.00
9323;DHT22;4700;48.822;9.270;2022-12-07T13:49:51;5.80;1.00
9323;DHT22;4700;48.822;9.270;2022-12-07T13:52:43;5.80;1.00
9323;DHT22;4700;48.822;9.270;2022-12-07T13:55:33;5.70;1.00
9323;DHT22;4700;48.822;9.270;2022-12-07T13:58:22;5.70;1.00
9323;DHT22;4700;48.822;9.270;2022-12-07T14:01:11;5.70;1.00
9323;DHT22;4700;48.822;9.270;2022-12-07T14:07:26;5.60;1.00
9323;DHT22;4700;48.822;9.270;2022-12-07T14:10:28;5.60;1.00
9323;DHT22;4700;48.822;9.270;2022-12-07T14:13:30;5.50;1.00
9323;DHT22;4700;48.822;9.270;2022-12-07T14:16:23;5.50;1.00
9323;DHT22;4700;48.822;9.270;2022-12-07T14:19:44;5.50;1.00
9323;DHT22;4700;48.822;9.270;2022-12-07T14:22:33;5.60;1.00
9323;DHT22;4700;48.822;9.270;2022-12-07T14:25:20;5.60;1.00
9323;DHT22;4700;48.822;9.270;2022-12-07T14:28:26;5.70;1.00
9323;DHT22;4700;48.822;9.270;2022-12-07T14:31:14;5.70;1.00
9323;DHT22;4700;48.822;9.270;2022-12-07T14:34:01;5.70;1.00
9323;DHT22;4700;48.822;9.270;2022-12-07T14:36:46;5.70;1.00
9323;DHT22;4700;48.822;9.270;2022-12-07T14:39:32;5.70;1.00
9323;DHT22;4700;48.822;9.270;2022-12-07T14:42:18;5.70;1.00
9323;DHT22;4700;48.822;9.270;2022-12-07T14:45:15;5.70;1.00
9323;DHT22;4700;48.822;9.270;2022-12-07T14:48:02;5.60;1.00
9323;DHT22;4700;48.822;9.270;2022-12-07T14:50:52;5.60;1.00
9323;DHT22;4700;48.822;9.270;2022-12-07T14:53:41;5.60;1.00
9323;DHT22;4700;48.822;9.270;2022-12-07T14:56:28;5.50;1.00
9323;DHT22;4700;48.822;9.270;2022-12-07T14:59:14;5.50;1.00
9323;DHT22;4700;48.822;9.270;2022-12-07T15:02:04;5.50;1.00
9323;DHT22;4700;48.822;9.270;2022-12-07T15:04:50;5.40;1.00
9323;DHT22;4700;48.822;9.270;2022-12-07T15:07:36;5.30;1.00
9323;DHT22;4700;48.822;9.270;2022-12-07T15:10:24;5.30;1.00
9323;DHT22;4700;48.822;9.270;2022-12-07T15:13:13;5.20;1.00
9323;DHT22;4700;48.822;9.270;2022-12-07T15:16:19;5.20;1.00
9323;DHT22;4700;48.822;9.270;2022-12-07T15:19:11;5.10;1.00
9323;DHT22;4700;48.822;9.270;2022-12-07T15:21:58;5.10;1.00
9323;DHT22;4700;48.822;9.270;2022-12-07T15:24:46;5.10;1.00
9323;DHT22;4700;48.822;9.270;2022-12-07T15:27:34;5.00;1.00
9323;DHT22;4700;48.822;9.270;2022-12-07T15:30:22;4.90;1.00
9323;DHT22;4700;48.822;9.270;2022-12-07T15:33:18;4.90;1.00
9323;DHT22;4700;48.822;9.270;2022-12-07T15:36:19;4.80;1.00
9323;DHT22;4700;48.822;9.270;2022-12-07T15:39:10;4.70;1.00
9323;DHT22;4700;48.822;9.270;2022-12-07T15:41:56;4.70;1.00
9323;DHT22;4700;48.822;9.270;2022-12-07T15:44:44;4.60;1.00
9323;DHT22;4700;48.822;9.270;2022-12-07T15:47:48;4.60;1.00
9323;DHT22;4700;48.822;9.270;2022-12-07T15:50:36;4.60;1.00
9323;DHT22;4700;48.822;9.270;2022-12-07T15:53:25;4.60;1.00
9323;DHT22;4700;48.822;9.270;2022-12-07T15:56:16;4.50;1.00
9323;DHT22;4700;48.822;9.270;2022-12-07T15:59:03;4.50;1.00
9323;DHT22;4700;48.822;9.270;2022-12-07T16:01:50;4.40;1.00
9323;DHT22;4700;48.822;9.270;2022-12-07T16:04:37;4.40;1.00
9323;DHT22;4700;48.822;9.270;2022-12-07T16:07:23;4.40;1.00
9323;DHT22;4700;48.822;9.270;2022-12-07T16:10:11;4.40;1.00
9323;DHT22;4700;48.822;9.270;2022-12-07T16:12:57;4.30;1.00
9323;DHT22;4700;48.822;9.270;2022-12-07T16:15:43;4.20;1.00
9323;DHT22;4700;48.822;9.270;2022-12-07T16:18:28;4.10;1.00
9323;DHT22;4700;48.822;9.270;2022-12-07T16:21:12;4.10;1.00
9323;DHT22;4700;48.822;9.270;2022-12-07T16:26:35;4.20;1.00
9323;DHT22;4700;48.822;9.270;2022-12-07T16:37:09;4.00;1.00
9323;DHT22;4700;48.822;9.270;2022-12-07T17:47:14;3.50;1.00
9323;DHT22;4700;48.822;9.270;2022-12-07T18:02:59;3.70;1.00
9323;DHT22;4700;48.822;9.270;2022-12-07T18:31:43;4.00;1.00
9323;DHT22;4700;48.822;9.270;2022-12-07T18:34:30;4.00;1.00
9323;DHT22;4700;48.822;9.270;2022-12-07T18:37:16;4.00;1.00
9323;DHT22;4700;48.822;9.270;2022-12-07T18:40:06;4.00;1.00
9323;DHT22;4700;48.822;9.270;2022-12-07T18:42:53;4.00;1.00
9323;DHT22;4700;48.822;9.270;2022-12-07T18:45:40;4.00;1.00
9323;DHT22;4700;48.822;9.270;2022-12-07T18:48:30;3.90;1.00
9323;DHT22;4700;48.822;9.270;2022-12-07T18:51:18;3.90;1.00
9323;DHT22;4700;48.822;9.270;2022-12-07T18:54:04;3.90;1.00
9323;DHT22;4700;48.822;9.270;2022-12-07T18:56:54;4.00;1.00
9323;DHT22;4700;48.822;9.270;2022-12-07T18:59:40;4.00;1.00
9323;DHT22;4700;48.822;9.270;2022-12-07T19:02:34;4.00;1.00
9323;DHT22;4700;48.822;9.270;2022-12-07T19:05:21;4.00;1.00
9323;DHT22;4700;48.822;9.270;2022-12-07T19:08:09;4.00;1.00
9323;DHT22;4700;48.822;9.270;2022-12-07T19:10:55;4.00;1.00
9323;DHT22;4700;48.822;9.270;2022-12-07T19:14:01;4.00;1.00
9323;DHT22;4700;48.822;9.270;2022-12-07T19:16:50;4.00;1.00
9323;DHT22;4700;48.822;9.270;2022-12-07T19:19:37;4.00;1.00
9323;DHT22;4700;48.822;9.270;2022-12-07T19:22:25;4.00;1.00
9323;DHT22;4700;48.822;9.270;2022-12-07T19:25:11;4.00;1.00
9323;DHT22;4700;48.822;9.270;2022-12-07T19:27:57;4.00;1.00
9323;DHT22;4700;48.822;9.270;2022-12-07T19:30:43;4.00;1.00
9323;DHT22;4700;48.822;9.270;2022-12-07T19:33:32;3.90;1.00
9323;DHT22;4700;48.822;9.270;2022-12-07T19:36:18;3.90;1.00
9323;DHT22;4700;48.822;9.270;2022-12-07T19:39:06;4.00;1.00
9323;DHT22;4700;48.822;9.270;2022-12-07T19:41:51;4.00;1.00
9323;DHT22;4700;48.822;9.270;2022-12-07T19:44:38;4.10;1.00
9323;DHT22;4700;48.822;9.270;2022-12-07T19:47:26;4.00;1.00
9323;DHT22;4700;48.822;9.270;2022-12-07T19:50:11;4.00;1.00
9323;DHT22;4700;48.822;9.270;2022-12-07T19:53:01;4.00;1.00
9323;DHT22;4700;48.822;9.270;2022-12-07T19:55:48;4.10;1.00
9323;DHT22;4700;48.822;9.270;2022-12-07T19:58:37;4.10;1.00
9323;DHT22;4700;48.822;9.270;2022-12-07T20:01:24;4.10;1.00
9323;DHT22;4700;48.822;9.270;2022-12-07T20:04:11;4.10;1.00
9323;DHT22;4700;48.822;9.270;2022-12-07T20:07:00;4.10;1.00
9323;DHT22;4700;48.822;9.270;2022-12-07T20:09:46;4.10;1.00
9323;DHT22;4700;48.822;9.270;2022-12-07T20:12:33;4.20;1.00
9323;DHT22;4700;48.822;9.270;2022-12-07T20:15:36;4.20;1.00
9323;DHT22;4700;48.822;9.270;2022-12-07T20:18:22;4.10;1.00
9323;DHT22;4700;48.822;9.270;2022-12-07T20:21:10;4.20;1.00
9323;DHT22;4700;48.822;9.270;2022-12-07T20:23:58;4.20;1.00
9323;DHT22;4700;48.822;9.270;2022-12-07T20:26:45;4.20;1.00
9323;DHT22;4700;48.822;9.270;2022-12-07T20:29:33;4.10;1.00
9323;DHT22;4700;48.822;9.270;2022-12-07T20:32:19;4.10;1.00
9323;DHT22;4700;48.822;9.270;2022-12-07T20:35:05;4.10;1.00
9323;DHT22;4700;48.822;9.270;2022-12-07T20:37:50;4.10;1.00
9323;DHT22;4700;48.822;9.270;2022-12-07T20:40:38;4.10;1.00
9323;DHT22;4700;48.822;9.270;2022-12-07T20:43:24;4.10;1.00
9323;DHT22;4700;48.822;9.270;2022-12-07T20:46:12;4.10;1.00
9323;DHT22;4700;48.822;9.270;2022-12-07T20:48:59;4.10;1.00
9323;DHT22;4700;48.822;9.270;2022-12-07T20:51:46;4.10;1.00
9323;DHT22;4700;48.822;9.270;2022-12-07T20:54:32;4.10;1.00
9323;DHT22;4700;48.822;9.270;2022-12-07T20:57:18;4.10;1.00
9323;DHT22;4700;48.822;9.270;2022-12-07T21:00:05;4.10;1.00
9323;DHT22;4700;48.822;9.270;2022-12-07T21:02:53;4.00;1.00
9323;DHT22;4700;48.822;9.270;2022-12-07T21:05:40;4.00;1.00
9323;DHT22;4700;48.822;9.270;2022-12-07T21:08:26;4.00;1.00
9323;DHT22;4700;48.822;9.270;2022-12-07T21:11:13;4.00;1.00
9323;DHT22;4700;48.822;9.270;2022-12-07T21:13:59;4.00;1.00
9323;DHT22;4700;48.822;9.270;2022-12-07T21:16:45;4.00;1.00
9323;DHT22;4700;48.822;9.270;2022-12-07T21:19:32;4.00;1.00
9323;DHT22;4700;48.822;9.270;2022-12-07T21:22:18;4.00;1.00
9323;DHT22;4700;48.822;9.270;2022-12-07T21:25:05;4.00;1.00
9323;DHT22;4700;48.822;9.270;2022-12-07T21:27:51;4.10;1.00
9323;DHT22;4700;48.822;9.270;2022-12-07T21:30:39;4.10;1.00
9323;DHT22;4700;48.822;9.270;2022-12-07T21:33:25;4.00;1.00
9323;DHT22;4700;48.822;9.270;2022-12-07T21:36:14;4.00;1.00
9323;DHT22;4700;48.822;9.270;2022-12-07T21:39:00;3.90;1.00
9323;DHT22;4700;48.822;9.270;2022-12-07T21:41:46;3.90;1.00
9323;DHT22;4700;48.822;9.270;2022-12-07T21:44:32;3.90;1.00
9323;DHT22;4700;48.822;9.270;2022-12-07T21:47:18;3.80;1.00
9323;DHT22;4700;48.822;9.270;2022-12-07T21:50:04;3.80;1.00
9323;DHT22;4700;48.822;9.270;2022-12-07T21:52:52;3.80;1.00
9323;DHT22;4700;48.822;9.270;2022-12-07T21:55:39;3.70;1.00
9323;DHT22;4700;48.822;9.270;2022-12-07T21:58:25;3.60;1.00
9323;DHT22;4700;48.822;9.270;2022-12-07T22:01:15;3.60;1.00
9323;DHT22;4700;48.822;9.270;2022-12-07T22:04:05;3.40;1.00
9323;DHT22;4700;48.822;9.270;2022-12-07T22:06:52;3.30;1.00
9323;DHT22;4700;48.822;9.270;2022-12-07T22:09:39;3.20;1.00
9323;DHT22;4700;48.822;9.270;2022-12-07T22:12:25;3.10;1.00
9323;DHT22;4700;48.822;9.270;2022-12-07T22:15:11;3.10;1.00
9323;DHT22;4700;48.822;9.270;2022-12-07T22:17:58;3.00;1.00
